createdAt,value
2018-05-02T00:00:05.691Z,7.25
2018-05-02T00:02:39.134Z,7.19
2018-05-02T00:05:12.402Z,7.07
2018-05-02T00:07:45.541Z,7.00
2018-05-02T00:10:19.249Z,7.01
2018-05-02T00:12:52.432Z,7.01
2018-05-02T00:15:25.548Z,6.96
2018-05-02T00:17:58.943Z,6.94
2018-05-02T00:20:32.358Z,6.99
2018-05-02T00:23:05.447Z,6.88
2018-05-02T00:25:38.920Z,6.80
2018-05-02T00:28:12.392Z,6.84
2018-05-02T00:30:45.478Z,6.89
2018-05-02T00:33:18.594Z,6.90
2018-05-02T00:35:51.889Z,6.79
2018-05-02T00:38:25.271Z,6.68
2018-05-02T00:40:58.482Z,6.65
2018-05-02T00:43:32.723Z,6.69
2018-05-02T00:46:06.204Z,6.68
2018-05-02T00:48:48.023Z,6.54
2018-05-02T00:51:21.578Z,6.50
2018-05-02T00:53:55.244Z,6.57
2018-05-02T00:56:28.592Z,6.50
2018-05-02T00:59:01.713Z,6.49
2018-05-02T01:01:35.598Z,6.58
2018-05-02T01:04:08.872Z,6.48
2018-05-02T01:06:41.966Z,6.43
2018-05-02T01:09:15.709Z,6.37
2018-05-02T01:11:48.991Z,6.36
2018-05-02T01:14:22.335Z,6.32
2018-05-02T01:16:55.854Z,6.25
2018-05-02T01:19:29.051Z,6.25
2018-05-02T01:22:02.214Z,6.28
2018-05-02T01:24:35.816Z,6.33
2018-05-02T01:27:10.071Z,6.27
2018-05-02T01:29:43.380Z,6.18
2018-05-02T01:32:17.190Z,6.14
2018-05-02T01:34:50.452Z,6.07
2018-05-02T01:37:23.569Z,6.11
2018-05-02T01:39:57.685Z,6.19
2018-05-02T01:42:31.399Z,6.09
2018-05-02T01:45:06.036Z,6.03
2018-05-02T01:47:39.388Z,6.00
2018-05-02T01:50:12.639Z,6.05
2018-05-02T01:52:45.699Z,6.07
2018-05-02T01:55:18.976Z,6.08
2018-05-02T01:57:52.182Z,6.03
2018-05-02T02:00:25.441Z,6.01
2018-05-02T02:02:58.992Z,5.97
2018-05-02T02:05:32.392Z,6.03
2018-05-02T02:08:05.658Z,6.00
2018-05-02T02:13:04.595Z,6.44
2018-05-02T02:15:37.679Z,6.67
2018-05-02T02:18:10.799Z,6.68
2018-05-02T02:20:44.383Z,6.76
2018-05-02T02:23:17.472Z,6.87
2018-05-02T02:25:50.741Z,6.94
2018-05-02T02:28:23.860Z,7.03
2018-05-02T02:30:57.130Z,7.26
2018-05-02T02:33:30.285Z,7.33
2018-05-02T02:36:03.434Z,7.39
2018-05-02T02:38:36.565Z,7.26
2018-05-02T02:41:10.015Z,7.39
2018-05-02T02:43:43.155Z,7.53
2018-05-02T02:46:16.190Z,7.50
2018-05-02T02:48:50.346Z,7.45
2018-05-02T02:51:23.420Z,7.51
2018-05-02T02:53:56.478Z,7.56
2018-05-02T02:56:30.322Z,7.55
2018-05-02T02:59:03.475Z,7.52
2018-05-02T03:01:36.609Z,7.46
2018-05-02T03:04:12.093Z,7.48
2018-05-02T03:06:45.204Z,7.45
2018-05-02T03:09:18.476Z,7.30
2018-05-02T03:11:51.852Z,7.17
2018-05-02T03:14:24.881Z,7.07
2018-05-02T03:16:58.040Z,6.89
2018-05-02T03:19:31.318Z,6.81
2018-05-02T03:22:04.378Z,6.73
2018-05-02T03:24:37.483Z,6.58
2018-05-02T03:27:11.234Z,6.53
2018-05-02T03:29:44.315Z,6.47
2018-05-02T03:32:17.651Z,6.38
2018-05-02T03:34:52.007Z,6.36
2018-05-02T03:37:26.982Z,6.29
2018-05-02T03:40:00.201Z,6.17
2018-05-02T03:42:33.876Z,6.15
2018-05-02T03:45:07.717Z,6.13
2018-05-02T03:47:40.887Z,6.07
2018-05-02T03:50:14.328Z,6.19
2018-05-02T03:52:47.328Z,6.29
2018-05-02T03:55:20.509Z,6.19
2018-05-02T03:57:53.893Z,6.28
2018-05-02T04:02:40.108Z,6.62
2018-05-02T04:05:26.466Z,6.97
2018-05-02T04:07:59.941Z,6.95
2018-05-02T04:10:33.602Z,7.10
2018-05-02T04:13:06.753Z,7.22
2018-05-02T04:15:41.507Z,7.23
2018-05-02T04:18:15.800Z,7.34
2018-05-02T04:20:49.949Z,7.33
2018-05-02T04:23:23.250Z,7.45
2018-05-02T04:25:56.450Z,7.34
2018-05-02T04:28:30.227Z,7.30
2018-05-02T04:31:04.069Z,7.33
2018-05-02T04:33:39.291Z,7.45
2018-05-02T04:36:12.368Z,7.63
2018-05-02T04:38:45.651Z,7.67
2018-05-02T04:41:19.419Z,7.62
2018-05-02T04:43:52.666Z,7.62
2018-05-02T04:46:25.977Z,7.69
2018-05-02T04:48:59.065Z,7.86
2018-05-02T04:51:33.695Z,7.82
2018-05-02T04:54:07.607Z,7.85
2018-05-02T04:56:42.188Z,7.95
2018-05-02T04:59:15.889Z,7.92
2018-05-02T05:01:49.610Z,8.06
2018-05-02T05:04:23.424Z,8.21
2018-05-02T05:06:56.794Z,8.26
2018-05-02T05:09:30.207Z,8.20
2018-05-02T05:12:03.632Z,8.39
2018-05-02T05:14:38.893Z,8.50
2018-05-02T05:17:17.010Z,8.57
2018-05-02T05:19:52.228Z,8.54
2018-05-02T05:22:27.372Z,8.73
2018-05-02T05:25:00.492Z,8.84
2018-05-02T05:27:33.821Z,8.98
2018-05-02T05:30:07.858Z,9.20
2018-05-02T05:32:42.479Z,9.42
2018-05-02T05:35:15.792Z,9.52
2018-05-02T05:37:50.187Z,9.45
2018-05-02T05:40:25.184Z,9.48
2018-05-02T05:42:58.630Z,9.64
2018-05-02T05:45:32.361Z,9.61
2018-05-02T05:48:05.688Z,9.71
2018-05-02T05:50:39.715Z,9.79
2018-05-02T05:53:13.330Z,9.85
2018-05-02T05:55:46.828Z,9.83
2018-05-02T05:58:20.190Z,10.01
2018-05-02T06:00:54.154Z,9.92
2018-05-02T06:03:27.351Z,10.08
2018-05-02T06:06:03.009Z,10.22
2018-05-02T06:08:37.655Z,10.20
2018-05-02T06:11:12.753Z,10.33
2018-05-02T06:13:46.337Z,10.46
2018-05-02T06:16:19.520Z,10.57
2018-05-02T06:18:53.598Z,10.59
2018-05-02T06:21:28.152Z,10.64
2018-05-02T06:24:01.696Z,10.43
2018-05-02T06:26:35.328Z,10.49
2018-05-02T06:29:09.282Z,10.71
2018-05-02T06:31:42.829Z,10.69
2018-05-02T06:34:17.211Z,10.96
2018-05-02T06:36:50.876Z,10.99
2018-05-02T06:39:24.417Z,11.02
2018-05-02T06:41:59.199Z,11.03
2018-05-02T06:44:32.777Z,11.13
2018-05-02T06:47:05.834Z,11.26
2018-05-02T06:49:41.492Z,11.55
2018-05-02T06:52:15.186Z,11.69
2018-05-02T06:54:48.688Z,11.62
2018-05-02T06:57:22.034Z,11.43
2018-05-02T06:59:55.718Z,11.42
2018-05-02T07:02:30.426Z,11.43
2018-05-02T07:05:04.037Z,11.80
2018-05-02T07:07:37.878Z,11.89
2018-05-02T07:10:13.249Z,12.03
2018-05-02T07:12:46.618Z,11.89
2018-05-02T07:15:20.239Z,11.91
2018-05-02T07:17:54.204Z,11.76
2018-05-02T07:20:29.151Z,11.69
2018-05-02T07:23:03.473Z,11.77
2018-05-02T07:25:36.717Z,11.67
2018-05-02T07:28:09.836Z,11.99
2018-05-02T07:30:43.981Z,12.13
2018-05-02T07:33:17.050Z,11.41
2018-05-02T07:35:50.543Z,11.81
2018-05-02T07:38:24.534Z,12.27
2018-05-02T07:40:57.807Z,12.03
2018-05-02T07:43:30.978Z,11.75
2018-05-02T07:46:05.411Z,11.83
2018-05-02T07:48:39.420Z,12.45
2018-05-02T07:51:12.678Z,13.02
2018-05-02T07:53:47.822Z,13.09
2018-05-02T07:56:21.043Z,13.13
2018-05-02T07:58:54.459Z,13.29
2018-05-02T08:01:29.156Z,13.04
2018-05-02T08:04:02.445Z,13.02
2018-05-02T08:06:35.645Z,13.09
2018-05-02T08:09:09.588Z,13.20
2018-05-02T08:11:42.679Z,12.99
2018-05-02T08:14:15.820Z,12.99
2018-05-02T08:16:49.829Z,13.27
2018-05-02T08:19:24.192Z,12.98
2018-05-02T08:21:57.496Z,13.12
2018-05-02T08:24:31.076Z,13.09
2018-05-02T08:27:04.991Z,12.90
2018-05-02T08:29:39.004Z,12.87
2018-05-02T08:32:13.417Z,13.01
2018-05-02T08:34:46.801Z,13.21
2018-05-02T08:37:20.664Z,13.03
2018-05-02T08:39:57.282Z,13.11
2018-05-02T08:42:34.645Z,13.26
2018-05-02T08:45:10.469Z,13.51
2018-05-02T08:47:46.757Z,13.55
2018-05-02T08:50:20.953Z,13.83
2018-05-02T08:52:54.826Z,13.90
2018-05-02T08:55:28.376Z,13.96
2018-05-02T08:58:01.477Z,13.92
2018-05-02T09:00:35.820Z,13.51
2018-05-02T09:03:08.935Z,14.13
2018-05-02T09:05:43.489Z,13.86
2018-05-02T09:08:17.235Z,14.55
2018-05-02T09:10:53.579Z,14.65
2018-05-02T09:13:29.626Z,14.69
2018-05-02T09:16:03.207Z,14.68
2018-05-02T09:18:39.330Z,15.15
2018-05-02T09:21:14.200Z,15.48
2018-05-02T09:23:49.198Z,15.53
2018-05-02T09:26:22.410Z,15.36
2018-05-02T09:28:56.527Z,15.90
2018-05-02T09:31:31.870Z,16.04
2018-05-02T09:34:05.047Z,16.11
2018-05-02T09:36:38.775Z,16.58
2018-05-02T09:39:12.490Z,16.03
2018-05-02T09:41:45.542Z,16.14
2018-05-02T09:44:19.906Z,16.31
2018-05-02T09:46:54.750Z,16.84
2018-05-02T09:49:28.825Z,16.99
2018-05-02T09:52:02.720Z,17.20
2018-05-02T09:54:37.637Z,17.06
2018-05-02T09:57:11.807Z,17.06
2018-05-02T09:59:45.443Z,16.92
2018-05-02T10:02:20.233Z,16.81
2018-05-02T10:04:53.877Z,16.25
2018-05-02T10:07:28.445Z,16.59
2018-05-02T10:10:04.599Z,16.51
2018-05-02T10:12:38.160Z,16.34
2018-05-02T10:15:11.936Z,16.83
2018-05-02T10:17:45.687Z,16.51
2018-05-02T10:20:19.196Z,17.19
2018-05-02T10:22:56.894Z,17.60
2018-05-02T10:25:30.089Z,16.84
2018-05-02T10:28:04.027Z,16.79
2018-05-02T10:30:38.993Z,17.40
2018-05-02T10:33:12.340Z,17.91
2018-05-02T10:35:47.192Z,17.07
2018-05-02T10:38:20.544Z,17.79
2018-05-02T10:40:54.384Z,17.21
2018-05-02T10:43:30.939Z,16.45
2018-05-02T10:46:08.098Z,16.36
2018-05-02T10:48:41.263Z,16.98
2018-05-02T10:51:16.351Z,17.70
2018-05-02T10:53:50.094Z,17.04
2018-05-02T10:56:23.275Z,16.97
2018-05-02T10:58:56.550Z,16.41
2018-05-02T11:01:30.611Z,16.59
2018-05-02T11:04:04.755Z,16.69
2018-05-02T11:06:37.921Z,17.08
2018-05-02T11:09:11.254Z,17.23
2018-05-02T11:11:46.101Z,17.32
2018-05-02T11:14:19.807Z,17.33
2018-05-02T11:16:53.456Z,16.97
2018-05-02T11:19:26.852Z,16.99
2018-05-02T11:22:00.130Z,17.04
2018-05-02T11:24:33.641Z,16.75
2018-05-02T11:27:07.278Z,17.05
2018-05-02T11:29:40.618Z,16.96
2018-05-02T11:32:15.993Z,16.69
2018-05-02T11:34:51.137Z,16.85
2018-05-02T11:37:24.716Z,16.96
2018-05-02T11:39:58.984Z,17.18
2018-05-02T11:42:35.084Z,17.23
2018-05-02T11:45:08.156Z,16.98
2018-05-02T11:47:41.667Z,17.02
2018-05-02T11:50:15.709Z,17.28
2018-05-02T11:52:48.931Z,17.36
2018-05-02T11:55:22.341Z,17.19
2018-05-02T11:57:56.460Z,17.36
2018-05-02T12:00:29.677Z,17.77
2018-05-02T12:03:02.852Z,17.10
2018-05-02T12:05:37.496Z,17.75
2018-05-02T12:08:10.851Z,17.88
2018-05-02T12:10:43.988Z,17.59
2018-05-02T12:13:18.519Z,17.96
2018-05-02T12:15:51.819Z,18.06
2018-05-02T12:18:26.189Z,18.02
2018-05-02T12:20:59.915Z,18.38
2018-05-02T12:23:32.922Z,18.50
2018-05-02T12:26:07.491Z,18.17
2018-05-02T12:28:40.878Z,18.30
2018-05-02T12:31:18.632Z,18.06
2018-05-02T12:34:00.311Z,18.12
2018-05-02T12:36:35.166Z,17.95
2018-05-02T12:39:08.262Z,17.96
2018-05-02T12:41:42.039Z,18.34
2018-05-02T12:44:15.845Z,18.49
2018-05-02T12:46:49.055Z,18.39
2018-05-02T12:49:23.183Z,18.11
2018-05-02T12:54:36.745Z,17.82
2018-05-02T12:57:10.179Z,18.53
2018-05-02T12:59:44.986Z,18.73
2018-05-02T13:02:18.868Z,18.54
2018-05-02T13:04:58.898Z,18.28
2018-05-02T13:07:36.142Z,18.30
2018-05-02T13:10:09.506Z,18.64
2018-05-02T13:12:43.774Z,18.64
2018-05-02T13:15:17.042Z,18.92
2018-05-02T13:17:51.604Z,18.95
2018-05-02T13:20:25.993Z,19.02
2018-05-02T13:22:59.168Z,18.47
2018-05-02T13:25:34.778Z,18.37
2018-05-02T13:28:35.053Z,18.24
2018-05-02T13:34:34.558Z,18.20
2018-05-02T13:37:11.712Z,18.28
2018-05-02T13:39:46.301Z,18.46
2018-05-02T13:42:19.620Z,18.27
2018-05-02T13:44:53.399Z,18.47
2018-05-02T13:47:31.486Z,18.65
2018-05-02T13:50:05.334Z,18.18
2018-05-02T13:52:39.046Z,17.92
2018-05-02T13:55:12.716Z,18.21
2018-05-02T13:57:45.855Z,18.27
2018-05-02T14:00:23.077Z,18.25
2018-05-02T14:02:56.273Z,17.99
2018-05-02T14:05:30.229Z,18.01
2018-05-02T14:08:04.030Z,18.13
2018-05-02T14:10:38.866Z,18.11
2018-05-02T14:13:13.283Z,18.17
2018-05-02T14:15:46.676Z,18.17
2018-05-02T14:18:20.702Z,18.15
2018-05-02T14:20:55.786Z,17.85
2018-05-02T14:23:28.974Z,18.23
2018-05-02T14:26:02.350Z,18.31
2018-05-02T14:28:36.634Z,17.90
2018-05-02T14:31:11.733Z,18.06
2018-05-02T14:33:45.700Z,18.35
2018-05-02T14:36:19.601Z,17.93
2018-05-02T14:38:53.136Z,18.21
2018-05-02T14:41:26.272Z,17.71
2018-05-02T14:43:59.757Z,17.93
2018-05-02T14:46:33.375Z,17.79
2018-05-02T14:49:07.617Z,18.00
2018-05-02T14:51:40.840Z,18.11
2018-05-02T14:54:16.033Z,18.01
2018-05-02T14:56:49.235Z,18.04
2018-05-02T14:59:23.830Z,18.11
2018-05-02T15:02:01.155Z,17.75
2018-05-02T15:04:39.150Z,18.26
2018-05-02T15:07:16.975Z,18.27
2018-05-02T15:09:52.210Z,18.20
2018-05-02T15:12:25.430Z,18.22
2018-05-02T15:14:59.298Z,18.21
2018-05-02T15:17:33.114Z,18.32
2018-05-02T15:20:07.031Z,18.15
2018-05-02T15:22:43.579Z,18.27
2018-05-02T15:25:17.338Z,18.16
2018-05-02T15:27:51.874Z,18.13
2018-05-02T15:30:25.543Z,18.19
2018-05-02T15:33:02.520Z,18.26
2018-05-02T15:35:36.106Z,18.07
2018-05-02T15:38:10.279Z,18.16
2018-05-02T15:40:46.328Z,18.35
2018-05-02T15:43:20.166Z,18.81
2018-05-02T15:45:53.628Z,19.03
2018-05-02T15:48:27.956Z,18.58
2018-05-02T15:51:03.212Z,18.48
2018-05-02T15:53:36.712Z,17.93
2018-05-02T15:56:10.230Z,17.97
2018-05-02T15:58:44.202Z,17.75
2018-05-02T16:01:20.321Z,17.46
2018-05-02T16:03:57.776Z,17.50
2018-05-02T16:06:31.247Z,17.51
2018-05-02T16:09:04.945Z,17.26
2018-05-02T16:11:39.406Z,17.11
2018-05-02T16:14:12.648Z,17.16
2018-05-02T16:16:47.437Z,17.03
2018-05-02T16:19:21.034Z,17.01
2018-05-02T16:21:54.607Z,17.19
2018-05-02T16:24:29.145Z,17.19
2018-05-02T16:27:02.472Z,17.08
2018-05-02T16:29:36.065Z,16.91
2018-05-02T16:32:09.844Z,17.02
2018-05-02T16:34:42.996Z,17.03
2018-05-02T16:37:16.661Z,17.19
2018-05-02T16:39:50.064Z,17.16
2018-05-02T16:42:23.241Z,17.07
2018-05-02T16:44:56.661Z,17.22
2018-05-02T16:47:30.419Z,17.29
2018-05-02T16:50:03.728Z,17.16
2018-05-02T16:52:36.883Z,17.12
2018-05-02T16:55:12.760Z,17.26
2018-05-02T16:57:46.460Z,17.09
2018-05-02T17:00:19.983Z,17.24
2018-05-02T17:02:54.641Z,16.85
2018-05-02T17:05:29.388Z,16.92
2018-05-02T17:08:03.162Z,16.95
2018-05-02T17:10:36.644Z,17.06
2018-05-02T17:13:10.375Z,17.00
2018-05-02T17:15:45.322Z,16.75
2018-05-02T17:18:19.446Z,16.59
2018-05-02T17:20:53.569Z,16.47
2018-05-02T17:23:26.636Z,16.40
2018-05-02T17:26:00.295Z,16.14
2018-05-02T17:28:33.833Z,16.26
2018-05-02T17:31:07.258Z,16.20
2018-05-02T17:33:40.271Z,16.33
2018-05-02T17:36:13.649Z,16.33
2018-05-02T17:38:46.970Z,16.19
2018-05-02T17:41:20.562Z,16.31
2018-05-02T17:43:54.019Z,16.37
2018-05-02T17:46:27.529Z,16.22
2018-05-02T17:49:01.096Z,16.14
2018-05-02T17:51:36.167Z,16.01
2018-05-02T17:54:09.850Z,16.05
2018-05-02T17:56:46.271Z,16.06
2018-05-02T17:59:29.096Z,16.01
2018-05-02T18:02:02.420Z,15.88
2018-05-02T18:04:42.295Z,15.81
2018-05-02T18:07:21.733Z,15.60
2018-05-02T18:09:55.484Z,15.52
2018-05-02T18:12:28.483Z,15.39
2018-05-02T18:15:02.213Z,15.22
2018-05-02T18:17:35.804Z,15.20
2018-05-02T18:21:12.236Z,15.46
2018-05-02T18:23:45.568Z,15.27
2018-05-02T18:26:20.057Z,15.32
2018-05-02T18:28:53.262Z,15.38
2018-05-02T18:31:26.688Z,15.18
2018-05-02T18:34:04.879Z,15.22
2018-05-02T18:36:38.275Z,15.24
2018-05-02T18:39:11.475Z,15.18
2018-05-02T18:41:45.007Z,15.13
2018-05-02T18:44:18.590Z,15.08
2018-05-02T18:46:53.988Z,15.18
2018-05-02T18:49:27.681Z,15.04
2018-05-02T18:52:00.997Z,15.10
2018-05-02T18:54:34.326Z,15.00
2018-05-02T18:57:08.561Z,15.15
2018-05-02T18:59:46.558Z,14.93
2018-05-02T19:02:22.257Z,15.02
2018-05-02T19:04:56.410Z,14.92
2018-05-02T19:07:31.866Z,14.90
2018-05-02T19:10:05.499Z,14.81
2018-05-02T19:12:40.536Z,14.76
2018-05-02T19:15:13.942Z,14.86
2018-05-02T19:17:51.709Z,14.99
2018-05-02T19:20:41.839Z,14.92
2018-05-02T19:23:15.483Z,14.96
2018-05-02T19:25:54.604Z,14.99
2018-05-02T19:28:29.315Z,14.95
2018-05-02T19:31:12.054Z,14.70
2018-05-02T19:34:00.042Z,14.83
2018-05-02T19:36:34.056Z,14.85
2018-05-02T19:39:22.323Z,14.80
2018-05-02T19:44:12.274Z,14.87
2018-05-02T19:46:45.933Z,14.71
2018-05-02T19:49:19.155Z,14.70
2018-05-02T19:51:58.036Z,14.66
2018-05-02T19:54:31.739Z,14.63
2018-05-02T19:57:05.088Z,14.64
2018-05-02T19:59:38.480Z,14.70
2018-05-02T20:03:16.151Z,14.69
2018-05-02T20:05:49.281Z,14.68
2018-05-02T20:08:26.877Z,14.66
2018-05-02T20:13:10.906Z,14.70
2018-05-02T20:15:45.598Z,14.56
2018-05-02T20:18:19.405Z,14.56
2018-05-02T20:20:52.980Z,14.62
2018-05-02T20:23:28.154Z,14.66
2018-05-02T20:26:01.994Z,14.59
2018-05-02T20:28:36.941Z,14.56
2018-05-02T20:31:10.787Z,14.62
2018-05-02T20:33:44.654Z,14.57
2018-05-02T20:36:18.675Z,14.50
2018-05-02T20:38:53.742Z,14.44
2018-05-02T20:41:26.978Z,14.44
2018-05-02T20:44:00.471Z,14.35
2018-05-02T20:46:33.552Z,14.36
2018-05-02T20:49:09.290Z,14.45
2018-05-02T20:51:42.427Z,14.43
2018-05-02T20:54:15.451Z,14.37
2018-05-02T20:56:48.775Z,14.38
2018-05-02T20:59:22.341Z,14.35
2018-05-02T21:01:55.682Z,14.33
2018-05-02T21:04:31.101Z,14.35
2018-05-02T21:07:04.336Z,14.25
2018-05-02T21:09:38.238Z,14.21
2018-05-02T21:12:11.660Z,14.18
2018-05-02T21:14:44.895Z,14.22
2018-05-02T21:17:18.152Z,14.23
2018-05-02T21:19:51.379Z,14.34
2018-05-02T21:29:15.558Z,14.00
2018-05-02T21:31:49.375Z,14.07
2018-05-02T21:34:25.670Z,14.11
2018-05-02T21:36:59.598Z,14.07
2018-05-02T21:39:32.868Z,14.13
2018-05-02T21:42:07.015Z,14.09
2018-05-02T21:44:40.401Z,14.16
2018-05-02T21:47:13.716Z,14.30
2018-05-02T21:49:48.155Z,14.25
2018-05-02T21:52:21.816Z,14.22
2018-05-02T21:54:55.797Z,14.27
2018-05-02T21:57:30.431Z,14.18
2018-05-02T22:00:03.856Z,14.10
2018-05-02T22:02:38.025Z,14.03
2018-05-02T22:05:12.196Z,13.90
2018-05-02T22:07:46.441Z,13.86
2018-05-02T22:10:22.562Z,13.66
2018-05-02T22:12:57.600Z,13.46
2018-05-02T22:15:31.553Z,13.29
2018-05-02T22:18:04.666Z,13.27
2018-05-02T22:20:39.033Z,13.32
2018-05-02T22:23:12.900Z,13.31
2018-05-02T22:25:46.004Z,13.34
2018-05-02T22:28:19.777Z,13.39
2018-05-02T22:30:54.165Z,13.41
2018-05-02T22:33:27.270Z,13.36
2018-05-02T22:36:00.407Z,13.37
2018-05-02T22:38:35.584Z,13.48
2018-05-02T22:41:08.530Z,13.39
2018-05-02T22:43:42.053Z,13.17
2018-05-02T22:46:15.559Z,13.09
2018-05-02T22:48:48.621Z,12.99
2018-05-02T22:51:22.526Z,12.89
2018-05-02T22:53:55.748Z,12.70
2018-05-02T22:56:30.436Z,12.60
2018-05-02T22:59:03.699Z,12.49
2018-05-02T23:01:36.982Z,12.41
2018-05-02T23:04:10.731Z,12.55
2018-05-02T23:06:43.791Z,12.54
2018-05-02T23:09:17.028Z,12.61
2018-05-02T23:11:50.554Z,12.77
2018-05-02T23:14:23.650Z,12.85
2018-05-02T23:16:56.936Z,12.85
2018-05-02T23:19:30.444Z,12.79
2018-05-02T23:22:03.496Z,12.96
2018-05-02T23:24:38.405Z,12.92
2018-05-02T23:27:11.762Z,12.96
2018-05-02T23:29:44.847Z,13.11
2018-05-02T23:32:19.322Z,13.20
2018-05-02T23:34:52.872Z,13.10
2018-05-02T23:37:25.977Z,13.07
2018-05-02T23:39:59.296Z,13.19
2018-05-02T23:42:33.445Z,13.33
2018-05-02T23:45:06.521Z,13.49
2018-05-02T23:47:39.819Z,13.37
2018-05-02T23:50:13.154Z,13.26
2018-05-02T23:52:46.148Z,13.25
2018-05-02T23:55:19.288Z,13.38
2018-05-02T23:57:52.970Z,13.33
